sensor_id;sensor_type;location;lat;lon;timestamp;P1;durP1;ratioP1;P2;durP2;ratioP2
40449;SDS011;41787;53.570;10.032;2023-04-24T00:00:55;4.72;;;3.75;;
40449;SDS011;41787;53.570;10.032;2023-04-24T00:03:22;5.95;;;4.03;;
40449;SDS011;41787;53.570;10.032;2023-04-24T00:05:48;5.70;;;3.85;;
40449;SDS011;41787;53.570;10.032;2023-04-24T00:08:14;4.68;;;3.72;;
40449;SDS011;41787;53.570;10.032;2023-04-24T00:10:40;5.38;;;4.10;;
40449;SDS011;41787;53.570;10.032;2023-04-24T00:13:07;5.60;;;4.38;;
40449;SDS011;41787;53.570;10.032;2023-04-24T00:15:33;6.30;;;4.35;;
40449;SDS011;41787;53.570;10.032;2023-04-24T00:17:59;7.90;;;4.50;;
40449;SDS011;41787;53.570;10.032;2023-04-24T00:20:26;5.78;;;3.97;;
40449;SDS011;41787;53.570;10.032;2023-04-24T00:22:53;5.03;;;3.72;;
40449;SDS011;41787;53.570;10.032;2023-04-24T00:25:19;7.05;;;4.10;;
40449;SDS011;41787;53.570;10.032;2023-04-24T00:27:45;4.78;;;3.90;;
40449;SDS011;41787;53.570;10.032;2023-04-24T00:30:11;5.00;;;4.10;;
40449;SDS011;41787;53.570;10.032;2023-04-24T00:32:37;7.15;;;3.65;;
40449;SDS011;41787;53.570;10.032;2023-04-24T00:35:03;5.07;;;3.33;;
40449;SDS011;41787;53.570;10.032;2023-04-24T00:37:29;4.60;;;3.67;;
40449;SDS011;41787;53.570;10.032;2023-04-24T00:39:55;4.30;;;3.45;;
40449;SDS011;41787;53.570;10.032;2023-04-24T00:42:21;3.92;;;3.50;;
40449;SDS011;41787;53.570;10.032;2023-04-24T00:44:47;6.25;;;4.50;;
40449;SDS011;41787;53.570;10.032;2023-04-24T00:47:13;7.03;;;4.07;;
40449;SDS011;41787;53.570;10.032;2023-04-24T00:49:39;3.88;;;3.30;;
40449;SDS011;41787;53.570;10.032;2023-04-24T00:52:05;4.50;;;3.60;;
40449;SDS011;41787;53.570;10.032;2023-04-24T00:54:33;4.80;;;3.70;;
40449;SDS011;41787;53.570;10.032;2023-04-24T00:56:59;7.22;;;4.03;;
40449;SDS011;41787;53.570;10.032;2023-04-24T00:59:26;5.82;;;3.60;;
40449;SDS011;41787;53.570;10.032;2023-04-24T01:01:52;5.85;;;4.13;;
40449;SDS011;41787;53.570;10.032;2023-04-24T01:04:18;6.53;;;4.18;;
40449;SDS011;41787;53.570;10.032;2023-04-24T01:06:45;6.25;;;3.92;;
40449;SDS011;41787;53.570;10.032;2023-04-24T01:09:11;4.43;;;3.80;;
40449;SDS011;41787;53.570;10.032;2023-04-24T01:11:38;6.03;;;3.97;;
40449;SDS011;41787;53.570;10.032;2023-04-24T01:14:04;4.88;;;3.78;;
40449;SDS011;41787;53.570;10.032;2023-04-24T01:16:30;7.22;;;4.30;;
40449;SDS011;41787;53.570;10.032;2023-04-24T01:18:56;5.57;;;3.53;;
40449;SDS011;41787;53.570;10.032;2023-04-24T01:21:22;7.03;;;3.83;;
40449;SDS011;41787;53.570;10.032;2023-04-24T01:23:49;4.35;;;3.38;;
40449;SDS011;41787;53.570;10.032;2023-04-24T01:26:16;4.75;;;3.70;;
40449;SDS011;41787;53.570;10.032;2023-04-24T01:28:42;5.75;;;3.97;;
40449;SDS011;41787;53.570;10.032;2023-04-24T01:31:08;5.70;;;4.05;;
40449;SDS011;41787;53.570;10.032;2023-04-24T01:33:34;7.60;;;4.10;;
40449;SDS011;41787;53.570;10.032;2023-04-24T01:36:00;4.95;;;3.55;;
40449;SDS011;41787;53.570;10.032;2023-04-24T01:38:27;4.60;;;3.85;;
40449;SDS011;41787;53.570;10.032;2023-04-24T01:40:53;5.15;;;3.40;;
40449;SDS011;41787;53.570;10.032;2023-04-24T01:43:19;4.32;;;3.30;;
40449;SDS011;41787;53.570;10.032;2023-04-24T01:45:45;4.28;;;3.38;;
40449;SDS011;41787;53.570;10.032;2023-04-24T01:48:12;5.93;;;3.05;;
40449;SDS011;41787;53.570;10.032;2023-04-24T01:50:38;4.70;;;3.10;;
40449;SDS011;41787;53.570;10.032;2023-04-24T01:53:04;4.15;;;3.20;;
40449;SDS011;41787;53.570;10.032;2023-04-24T01:55:30;5.57;;;2.97;;
40449;SDS011;41787;53.570;10.032;2023-04-24T01:57:56;4.93;;;3.30;;
40449;SDS011;41787;53.570;10.032;2023-04-24T02:00:22;4.35;;;3.05;;
40449;SDS011;41787;53.570;10.032;2023-04-24T02:02:49;4.40;;;2.25;;
40449;SDS011;41787;53.570;10.032;2023-04-24T02:05:15;3.88;;;2.35;;
40449;SDS011;41787;53.570;10.032;2023-04-24T02:07:41;4.00;;;2.28;;
40449;SDS011;41787;53.570;10.032;2023-04-24T02:10:07;4.70;;;2.50;;
40449;SDS011;41787;53.570;10.032;2023-04-24T02:12:33;5.30;;;2.45;;
40449;SDS011;41787;53.570;10.032;2023-04-24T02:14:59;3.03;;;2.30;;
40449;SDS011;41787;53.570;10.032;2023-04-24T02:17:25;3.03;;;2.00;;
40449;SDS011;41787;53.570;10.032;2023-04-24T02:19:51;2.78;;;2.10;;
40449;SDS011;41787;53.570;10.032;2023-04-24T02:22:17;2.22;;;1.90;;
40449;SDS011;41787;53.570;10.032;2023-04-24T02:24:43;4.07;;;2.40;;
40449;SDS011;41787;53.570;10.032;2023-04-24T02:27:09;3.45;;;2.63;;
40449;SDS011;41787;53.570;10.032;2023-04-24T02:29:36;2.47;;;1.83;;
40449;SDS011;41787;53.570;10.032;2023-04-24T02:32:02;5.18;;;2.42;;
40449;SDS011;41787;53.570;10.032;2023-04-24T02:34:28;2.85;;;2.22;;
40449;SDS011;41787;53.570;10.032;2023-04-24T02:36:54;5.63;;;2.22;;
40449;SDS011;41787;53.570;10.032;2023-04-24T02:39:20;3.85;;;2.47;;
40449;SDS011;41787;53.570;10.032;2023-04-24T02:41:46;2.70;;;2.08;;
40449;SDS011;41787;53.570;10.032;2023-04-24T02:44:12;2.38;;;1.98;;
40449;SDS011;41787;53.570;10.032;2023-04-24T02:46:38;2.95;;;2.40;;
40449;SDS011;41787;53.570;10.032;2023-04-24T02:49:06;3.75;;;2.50;;
40449;SDS011;41787;53.570;10.032;2023-04-24T02:51:32;3.97;;;2.40;;
40449;SDS011;41787;53.570;10.032;2023-04-24T02:53:58;2.45;;;2.13;;
40449;SDS011;41787;53.570;10.032;2023-04-24T02:56:23;3.35;;;2.40;;
40449;SDS011;41787;53.570;10.032;2023-04-24T02:58:49;6.15;;;3.65;;
40449;SDS011;41787;53.570;10.032;2023-04-24T03:01:15;3.42;;;1.67;;
40449;SDS011;41787;53.570;10.032;2023-04-24T03:03:42;3.85;;;1.90;;
40449;SDS011;41787;53.570;10.032;2023-04-24T03:06:08;5.63;;;1.95;;
40449;SDS011;41787;53.570;10.032;2023-04-24T03:08:34;1.85;;;1.30;;
40449;SDS011;41787;53.570;10.032;2023-04-24T03:11:01;4.90;;;2.05;;
40449;SDS011;41787;53.570;10.032;2023-04-24T03:13:26;1.80;;;1.55;;
40449;SDS011;41787;53.570;10.032;2023-04-24T03:15:52;2.92;;;1.40;;
40449;SDS011;41787;53.570;10.032;2023-04-24T03:18:19;1.67;;;1.52;;
40449;SDS011;41787;53.570;10.032;2023-04-24T03:20:45;3.17;;;1.88;;
40449;SDS011;41787;53.570;10.032;2023-04-24T03:23:11;2.33;;;1.50;;
40449;SDS011;41787;53.570;10.032;2023-04-24T03:25:37;4.00;;;1.55;;
40449;SDS011;41787;53.570;10.032;2023-04-24T03:28:03;2.65;;;1.30;;
40449;SDS011;41787;53.570;10.032;2023-04-24T03:30:29;1.58;;;1.15;;
40449;SDS011;41787;53.570;10.032;2023-04-24T03:32:55;2.33;;;1.25;;
40449;SDS011;41787;53.570;10.032;2023-04-24T03:35:21;1.52;;;1.27;;
40449;SDS011;41787;53.570;10.032;2023-04-24T03:37:47;3.25;;;0.93;;
40449;SDS011;41787;53.570;10.032;2023-04-24T03:40:13;2.22;;;1.30;;
40449;SDS011;41787;53.570;10.032;2023-04-24T03:42:39;7.25;;;1.27;;
40449;SDS011;41787;53.570;10.032;2023-04-24T03:45:05;1.08;;;0.98;;
40449;SDS011;41787;53.570;10.032;2023-04-24T03:47:32;1.25;;;1.10;;
40449;SDS011;41787;53.570;10.032;2023-04-24T03:49:57;1.83;;;1.20;;
40449;SDS011;41787;53.570;10.032;2023-04-24T03:52:24;1.70;;;1.10;;
40449;SDS011;41787;53.570;10.032;2023-04-24T03:54:50;2.30;;;1.35;;
40449;SDS011;41787;53.570;10.032;2023-04-24T03:57:15;2.45;;;1.40;;
40449;SDS011;41787;53.570;10.032;2023-04-24T03:59:41;2.40;;;1.52;;
40449;SDS011;41787;53.570;10.032;2023-04-24T04:02:08;2.03;;;1.20;;
40449;SDS011;41787;53.570;10.032;2023-04-24T04:04:33;1.38;;;1.17;;
40449;SDS011;41787;53.570;10.032;2023-04-24T04:06:59;2.67;;;1.50;;
40449;SDS011;41787;53.570;10.032;2023-04-24T04:09:27;1.38;;;1.17;;
40449;SDS011;41787;53.570;10.032;2023-04-24T04:11:53;1.60;;;1.13;;
40449;SDS011;41787;53.570;10.032;2023-04-24T04:14:20;1.25;;;1.05;;
40449;SDS011;41787;53.570;10.032;2023-04-24T04:16:46;1.42;;;1.10;;
40449;SDS011;41787;53.570;10.032;2023-04-24T04:19:11;1.70;;;1.08;;
40449;SDS011;41787;53.570;10.032;2023-04-24T04:21:37;2.00;;;1.38;;
40449;SDS011;41787;53.570;10.032;2023-04-24T04:24:03;1.13;;;0.80;;
40449;SDS011;41787;53.570;10.032;2023-04-24T04:26:30;2.13;;;1.15;;
40449;SDS011;41787;53.570;10.032;2023-04-24T04:28:57;1.10;;;1.00;;
40449;SDS011;41787;53.570;10.032;2023-04-24T04:31:23;1.88;;;1.05;;
40449;SDS011;41787;53.570;10.032;2023-04-24T04:33:49;1.20;;;0.90;;
40449;SDS011;41787;53.570;10.032;2023-04-24T04:36:15;1.30;;;0.80;;
40449;SDS011;41787;53.570;10.032;2023-04-24T04:38:42;1.65;;;1.20;;
40449;SDS011;41787;53.570;10.032;2023-04-24T04:41:09;1.92;;;0.75;;
40449;SDS011;41787;53.570;10.032;2023-04-24T04:43:35;3.15;;;0.80;;
40449;SDS011;41787;53.570;10.032;2023-04-24T04:46:03;1.00;;;0.82;;
40449;SDS011;41787;53.570;10.032;2023-04-24T04:48:29;1.27;;;0.75;;
40449;SDS011;41787;53.570;10.032;2023-04-24T04:50:56;1.58;;;0.95;;
40449;SDS011;41787;53.570;10.032;2023-04-24T04:53:22;0.77;;;0.77;;
40449;SDS011;41787;53.570;10.032;2023-04-24T04:55:48;1.00;;;0.70;;
40449;SDS011;41787;53.570;10.032;2023-04-24T04:58:14;0.82;;;0.60;;
40449;SDS011;41787;53.570;10.032;2023-04-24T05:00:40;2.17;;;0.90;;
40449;SDS011;41787;53.570;10.032;2023-04-24T05:03:06;1.48;;;1.20;;
40449;SDS011;41787;53.570;10.032;2023-04-24T05:05:32;0.90;;;0.70;;
40449;SDS011;41787;53.570;10.032;2023-04-24T05:07:58;1.15;;;0.85;;
40449;SDS011;41787;53.570;10.032;2023-04-24T05:10:24;0.85;;;0.80;;
40449;SDS011;41787;53.570;10.032;2023-04-24T05:12:50;0.80;;;0.70;;
40449;SDS011;41787;53.570;10.032;2023-04-24T05:15:16;3.10;;;0.90;;
40449;SDS011;41787;53.570;10.032;2023-04-24T05:17:42;1.38;;;0.60;;
40449;SDS011;41787;53.570;10.032;2023-04-24T05:20:08;1.65;;;0.85;;
40449;SDS011;41787;53.570;10.032;2023-04-24T05:22:34;3.00;;;0.90;;
40449;SDS011;41787;53.570;10.032;2023-04-24T05:25:01;2.55;;;0.70;;
40449;SDS011;41787;53.570;10.032;2023-04-24T05:27:27;1.23;;;0.70;;
40449;SDS011;41787;53.570;10.032;2023-04-24T05:29:53;1.52;;;1.05;;
40449;SDS011;41787;53.570;10.032;2023-04-24T05:32:19;0.85;;;0.73;;
40449;SDS011;41787;53.570;10.032;2023-04-24T05:34:45;1.80;;;1.02;;
40449;SDS011;41787;53.570;10.032;2023-04-24T05:37:11;1.10;;;0.70;;
40449;SDS011;41787;53.570;10.032;2023-04-24T05:39:37;1.40;;;0.75;;
40449;SDS011;41787;53.570;10.032;2023-04-24T05:42:03;2.67;;;1.02;;
40449;SDS011;41787;53.570;10.032;2023-04-24T05:44:29;2.30;;;0.75;;
40449;SDS011;41787;53.570;10.032;2023-04-24T05:46:55;0.98;;;0.80;;
40449;SDS011;41787;53.570;10.032;2023-04-24T05:49:22;1.58;;;0.77;;
40449;SDS011;41787;53.570;10.032;2023-04-24T05:51:48;1.08;;;0.60;;
40449;SDS011;41787;53.570;10.032;2023-04-24T05:54:14;1.38;;;0.80;;
40449;SDS011;41787;53.570;10.032;2023-04-24T05:56:40;1.48;;;0.73;;
40449;SDS011;41787;53.570;10.032;2023-04-24T05:59:06;0.55;;;0.55;;
40449;SDS011;41787;53.570;10.032;2023-04-24T06:01:33;0.70;;;0.60;;
40449;SDS011;41787;53.570;10.032;2023-04-24T06:03:59;1.60;;;0.73;;
40449;SDS011;41787;53.570;10.032;2023-04-24T06:06:25;2.30;;;0.95;;
40449;SDS011;41787;53.570;10.032;2023-04-24T06:08:52;0.85;;;0.60;;
40449;SDS011;41787;53.570;10.032;2023-04-24T06:11:18;1.23;;;0.80;;
40449;SDS011;41787;53.570;10.032;2023-04-24T06:13:44;1.00;;;0.88;;
40449;SDS011;41787;53.570;10.032;2023-04-24T06:16:10;1.15;;;1.02;;
40449;SDS011;41787;53.570;10.032;2023-04-24T06:18:36;1.95;;;0.77;;
40449;SDS011;41787;53.570;10.032;2023-04-24T06:21:02;2.53;;;0.85;;
40449;SDS011;41787;53.570;10.032;2023-04-24T06:23:28;1.08;;;0.88;;
40449;SDS011;41787;53.570;10.032;2023-04-24T06:25:57;3.30;;;1.05;;
40449;SDS011;41787;53.570;10.032;2023-04-24T06:28:23;2.85;;;0.80;;
40449;SDS011;41787;53.570;10.032;2023-04-24T06:30:49;0.60;;;0.47;;
40449;SDS011;41787;53.570;10.032;2023-04-24T06:33:15;1.77;;;1.10;;
40449;SDS011;41787;53.570;10.032;2023-04-24T06:35:41;5.10;;;0.80;;
40449;SDS011;41787;53.570;10.032;2023-04-24T06:38:07;2.20;;;1.00;;
40449;SDS011;41787;53.570;10.032;2023-04-24T06:40:33;2.67;;;1.15;;
40449;SDS011;41787;53.570;10.032;2023-04-24T06:42:59;1.05;;;0.60;;
40449;SDS011;41787;53.570;10.032;2023-04-24T06:45:27;1.05;;;0.80;;
40449;SDS011;41787;53.570;10.032;2023-04-24T06:47:53;0.95;;;0.85;;
40449;SDS011;41787;53.570;10.032;2023-04-24T06:50:19;0.82;;;0.80;;
40449;SDS011;41787;53.570;10.032;2023-04-24T06:52:45;2.13;;;1.00;;
40449;SDS011;41787;53.570;10.032;2023-04-24T06:55:11;2.60;;;0.82;;
40449;SDS011;41787;53.570;10.032;2023-04-24T06:57:37;1.63;;;1.10;;
40449;SDS011;41787;53.570;10.032;2023-04-24T07:00:04;5.72;;;0.90;;
40449;SDS011;41787;53.570;10.032;2023-04-24T07:02:31;1.55;;;0.80;;
40449;SDS011;41787;53.570;10.032;2023-04-24T07:04:57;1.35;;;0.80;;
40449;SDS011;41787;53.570;10.032;2023-04-24T07:07:23;1.15;;;0.90;;
40449;SDS011;41787;53.570;10.032;2023-04-24T07:09:49;3.22;;;0.93;;
40449;SDS011;41787;53.570;10.032;2023-04-24T07:12:15;0.95;;;0.80;;
40449;SDS011;41787;53.570;10.032;2023-04-24T07:14:42;0.82;;;0.75;;
40449;SDS011;41787;53.570;10.032;2023-04-24T07:17:08;1.75;;;1.17;;
40449;SDS011;41787;53.570;10.032;2023-04-24T07:19:34;4.22;;;1.23;;
40449;SDS011;41787;53.570;10.032;2023-04-24T07:22:00;4.13;;;1.05;;
40449;SDS011;41787;53.570;10.032;2023-04-24T07:24:28;1.10;;;1.00;;
40449;SDS011;41787;53.570;10.032;2023-04-24T07:26:54;4.75;;;1.10;;
40449;SDS011;41787;53.570;10.032;2023-04-24T07:29:20;1.52;;;1.38;;
40449;SDS011;41787;53.570;10.032;2023-04-24T07:31:46;2.22;;;1.30;;
40449;SDS011;41787;53.570;10.032;2023-04-24T07:34:12;2.95;;;1.27;;
40449;SDS011;41787;53.570;10.032;2023-04-24T07:36:38;1.42;;;0.98;;
40449;SDS011;41787;53.570;10.032;2023-04-24T07:39:04;3.72;;;1.73;;
40449;SDS011;41787;53.570;10.032;2023-04-24T07:41:33;1.60;;;1.40;;
40449;SDS011;41787;53.570;10.032;2023-04-24T07:43:59;2.33;;;1.42;;
40449;SDS011;41787;53.570;10.032;2023-04-24T07:46:25;1.52;;;1.33;;
40449;SDS011;41787;53.570;10.032;2023-04-24T07:48:54;1.75;;;1.63;;
40449;SDS011;41787;53.570;10.032;2023-04-24T07:51:20;2.20;;;1.63;;
40449;SDS011;41787;53.570;10.032;2023-04-24T07:53:46;3.75;;;1.95;;
40449;SDS011;41787;53.570;10.032;2023-04-24T07:56:12;3.90;;;1.80;;
40449;SDS011;41787;53.570;10.032;2023-04-24T07:58:38;2.78;;;1.58;;
40449;SDS011;41787;53.570;10.032;2023-04-24T08:01:05;3.10;;;1.83;;
40449;SDS011;41787;53.570;10.032;2023-04-24T08:03:31;4.10;;;1.65;;
40449;SDS011;41787;53.570;10.032;2023-04-24T08:05:57;2.47;;;1.88;;
40449;SDS011;41787;53.570;10.032;2023-04-24T08:08:23;4.38;;;2.25;;
40449;SDS011;41787;53.570;10.032;2023-04-24T08:10:49;3.05;;;1.90;;
40449;SDS011;41787;53.570;10.032;2023-04-24T08:13:15;3.20;;;2.15;;
40449;SDS011;41787;53.570;10.032;2023-04-24T08:15:41;5.60;;;2.00;;
40449;SDS011;41787;53.570;10.032;2023-04-24T08:18:07;3.22;;;2.28;;
40449;SDS011;41787;53.570;10.032;2023-04-24T08:20:33;3.03;;;1.75;;
40449;SDS011;41787;53.570;10.032;2023-04-24T08:22:59;3.67;;;2.05;;
40449;SDS011;41787;53.570;10.032;2023-04-24T08:25:25;4.97;;;2.00;;
40449;SDS011;41787;53.570;10.032;2023-04-24T08:27:51;2.65;;;1.77;;
40449;SDS011;41787;53.570;10.032;2023-04-24T08:30:17;4.50;;;2.35;;
40449;SDS011;41787;53.570;10.032;2023-04-24T08:32:43;4.20;;;2.20;;
40449;SDS011;41787;53.570;10.032;2023-04-24T08:35:10;4.32;;;2.17;;
40449;SDS011;41787;53.570;10.032;2023-04-24T08:37:36;3.60;;;2.28;;
40449;SDS011;41787;53.570;10.032;2023-04-24T08:40:06;5.07;;;2.35;;
40449;SDS011;41787;53.570;10.032;2023-04-24T08:42:32;4.07;;;2.28;;
40449;SDS011;41787;53.570;10.032;2023-04-24T08:45:00;2.45;;;2.13;;
40449;SDS011;41787;53.570;10.032;2023-04-24T08:47:27;2.47;;;1.95;;
40449;SDS011;41787;53.570;10.032;2023-04-24T08:49:54;3.30;;;2.50;;
40449;SDS011;41787;53.570;10.032;2023-04-24T08:52:21;3.70;;;2.50;;
40449;SDS011;41787;53.570;10.032;2023-04-24T08:54:47;3.83;;;2.40;;
40449;SDS011;41787;53.570;10.032;2023-04-24T08:57:14;4.72;;;3.03;;
40449;SDS011;41787;53.570;10.032;2023-04-24T08:59:40;6.93;;;2.28;;
40449;SDS011;41787;53.570;10.032;2023-04-24T09:02:09;4.75;;;2.75;;
40449;SDS011;41787;53.570;10.032;2023-04-24T09:04:36;3.80;;;2.65;;
40449;SDS011;41787;53.570;10.032;2023-04-24T09:07:03;6.78;;;2.75;;
40449;SDS011;41787;53.570;10.032;2023-04-24T09:09:31;3.30;;;2.38;;
40449;SDS011;41787;53.570;10.032;2023-04-24T09:11:58;3.45;;;2.70;;
40449;SDS011;41787;53.570;10.032;2023-04-24T09:14:24;4.13;;;2.40;;
40449;SDS011;41787;53.570;10.032;2023-04-24T09:16:50;8.23;;;3.03;;
40449;SDS011;41787;53.570;10.032;2023-04-24T09:19:16;3.25;;;2.55;;
40449;SDS011;41787;53.570;10.032;2023-04-24T09:21:45;4.53;;;2.88;;
40449;SDS011;41787;53.570;10.032;2023-04-24T09:24:19;6.18;;;2.47;;
40449;SDS011;41787;53.570;10.032;2023-04-24T09:26:47;3.25;;;2.50;;
40449;SDS011;41787;53.570;10.032;2023-04-24T09:29:17;3.42;;;2.50;;
40449;SDS011;41787;53.570;10.032;2023-04-24T09:31:43;3.33;;;2.28;;
40449;SDS011;41787;53.570;10.032;2023-04-24T09:34:10;2.97;;;2.20;;
40449;SDS011;41787;53.570;10.032;2023-04-24T09:36:39;4.45;;;3.53;;
40449;SDS011;41787;53.570;10.032;2023-04-24T09:41:44;3.60;;;2.53;;
40449;SDS011;41787;53.570;10.032;2023-04-24T09:44:14;4.63;;;2.58;;
40449;SDS011;41787;53.570;10.032;2023-04-24T09:49:12;3.95;;;2.70;;
40449;SDS011;41787;53.570;10.032;2023-04-24T09:51:38;3.50;;;2.50;;
40449;SDS011;41787;53.570;10.032;2023-04-24T09:54:11;3.97;;;3.05;;
40449;SDS011;41787;53.570;10.032;2023-04-24T09:56:39;6.30;;;3.15;;
40449;SDS011;41787;53.570;10.032;2023-04-24T09:59:07;4.63;;;2.85;;
40449;SDS011;41787;53.570;10.032;2023-04-24T10:01:33;3.22;;;2.67;;
40449;SDS011;41787;53.570;10.032;2023-04-24T10:04:00;4.32;;;3.15;;
40449;SDS011;41787;53.570;10.032;2023-04-24T10:06:33;3.47;;;2.78;;
40449;SDS011;41787;53.570;10.032;2023-04-24T10:08:59;5.18;;;3.00;;
40449;SDS011;41787;53.570;10.032;2023-04-24T10:11:29;5.53;;;3.30;;
40449;SDS011;41787;53.570;10.032;2023-04-24T10:13:55;5.70;;;3.13;;
40449;SDS011;41787;53.570;10.032;2023-04-24T10:16:22;4.50;;;3.28;;
40449;SDS011;41787;53.570;10.032;2023-04-24T10:18:48;6.63;;;3.65;;
40449;SDS011;41787;53.570;10.032;2023-04-24T10:21:15;6.38;;;3.78;;
40449;SDS011;41787;53.570;10.032;2023-04-24T10:23:41;6.10;;;3.90;;
40449;SDS011;41787;53.570;10.032;2023-04-24T10:26:10;4.90;;;3.80;;
40449;SDS011;41787;53.570;10.032;2023-04-24T10:28:42;11.63;;;4.28;;
40449;SDS011;41787;53.570;10.032;2023-04-24T10:31:09;6.13;;;4.03;;
40449;SDS011;41787;53.570;10.032;2023-04-24T10:33:35;5.32;;;4.07;;
40449;SDS011;41787;53.570;10.032;2023-04-24T10:36:01;8.82;;;4.10;;
40449;SDS011;41787;53.570;10.032;2023-04-24T10:38:28;6.05;;;4.40;;
40449;SDS011;41787;53.570;10.032;2023-04-24T10:41:06;8.02;;;4.78;;
40449;SDS011;41787;53.570;10.032;2023-04-24T10:43:33;7.03;;;4.30;;
40449;SDS011;41787;53.570;10.032;2023-04-24T10:46:00;8.07;;;4.80;;
40449;SDS011;41787;53.570;10.032;2023-04-24T10:48:26;8.10;;;5.38;;
40449;SDS011;41787;53.570;10.032;2023-04-24T10:50:53;8.40;;;5.00;;
40449;SDS011;41787;53.570;10.032;2023-04-24T10:53:22;9.07;;;5.43;;
40449;SDS011;41787;53.570;10.032;2023-04-24T10:55:56;10.38;;;5.13;;
40449;SDS011;41787;53.570;10.032;2023-04-24T10:58:23;8.00;;;5.38;;
40449;SDS011;41787;53.570;10.032;2023-04-24T11:00:56;12.52;;;6.07;;
40449;SDS011;41787;53.570;10.032;2023-04-24T11:03:24;8.00;;;5.45;;
40449;SDS011;41787;53.570;10.032;2023-04-24T11:05:51;8.38;;;5.10;;
40449;SDS011;41787;53.570;10.032;2023-04-24T11:10:58;9.50;;;5.32;;
40449;SDS011;41787;53.570;10.032;2023-04-24T11:13:25;8.60;;;5.55;;
40449;SDS011;41787;53.570;10.032;2023-04-24T11:18:43;9.93;;;5.50;;
40449;SDS011;41787;53.570;10.032;2023-04-24T11:21:18;9.75;;;5.20;;
40449;SDS011;41787;53.570;10.032;2023-04-24T11:23:44;7.70;;;5.78;;
40449;SDS011;41787;53.570;10.032;2023-04-24T11:26:12;7.13;;;5.45;;
40449;SDS011;41787;53.570;10.032;2023-04-24T11:28:48;8.05;;;5.40;;
40449;SDS011;41787;53.570;10.032;2023-04-24T11:34:05;6.90;;;4.80;;
40449;SDS011;41787;53.570;10.032;2023-04-24T11:36:32;9.55;;;4.97;;
40449;SDS011;41787;53.570;10.032;2023-04-24T11:38:58;6.32;;;4.53;;
40449;SDS011;41787;53.570;10.032;2023-04-24T11:41:24;10.80;;;4.97;;
40449;SDS011;41787;53.570;10.032;2023-04-24T11:43:51;6.90;;;5.18;;
40449;SDS011;41787;53.570;10.032;2023-04-24T11:46:17;6.80;;;4.85;;
40449;SDS011;41787;53.570;10.032;2023-04-24T11:48:47;8.57;;;5.03;;
40449;SDS011;41787;53.570;10.032;2023-04-24T11:51:13;6.03;;;4.40;;
40449;SDS011;41787;53.570;10.032;2023-04-24T11:53:39;7.43;;;3.88;;
40449;SDS011;41787;53.570;10.032;2023-04-24T11:56:06;6.32;;;3.83;;
40449;SDS011;41787;53.570;10.032;2023-04-24T11:58:35;8.80;;;4.05;;
40449;SDS011;41787;53.570;10.032;2023-04-24T12:01:01;6.05;;;3.92;;
40449;SDS011;41787;53.570;10.032;2023-04-24T12:03:27;6.32;;;3.63;;
40449;SDS011;41787;53.570;10.032;2023-04-24T12:06:03;6.00;;;3.92;;
40449;SDS011;41787;53.570;10.032;2023-04-24T12:08:31;4.07;;;3.35;;
40449;SDS011;41787;53.570;10.032;2023-04-24T12:10:57;4.75;;;3.72;;
40449;SDS011;41787;53.570;10.032;2023-04-24T12:13:25;6.80;;;4.38;;
40449;SDS011;41787;53.570;10.032;2023-04-24T12:15:51;6.55;;;4.10;;
40449;SDS011;41787;53.570;10.032;2023-04-24T12:18:17;5.97;;;3.55;;
40449;SDS011;41787;53.570;10.032;2023-04-24T12:20:43;6.32;;;3.22;;
40449;SDS011;41787;53.570;10.032;2023-04-24T12:23:09;6.97;;;3.15;;
40449;SDS011;41787;53.570;10.032;2023-04-24T12:25:35;5.10;;;3.60;;
40449;SDS011;41787;53.570;10.032;2023-04-24T12:30:30;5.32;;;3.38;;
40449;SDS011;41787;53.570;10.032;2023-04-24T12:32:57;4.78;;;2.92;;
40449;SDS011;41787;53.570;10.032;2023-04-24T12:35:25;5.18;;;3.13;;
40449;SDS011;41787;53.570;10.032;2023-04-24T12:37:51;5.55;;;3.28;;
40449;SDS011;41787;53.570;10.032;2023-04-24T12:40:17;8.23;;;3.33;;
40449;SDS011;41787;53.570;10.032;2023-04-24T12:42:48;3.92;;;2.97;;
40449;SDS011;41787;53.570;10.032;2023-04-24T12:45:14;5.43;;;3.47;;
40449;SDS011;41787;53.570;10.032;2023-04-24T12:47:41;4.35;;;3.30;;
40449;SDS011;41787;53.570;10.032;2023-04-24T12:50:08;5.30;;;3.10;;
40449;SDS011;41787;53.570;10.032;2023-04-24T12:52:36;4.50;;;3.00;;
40449;SDS011;41787;53.570;10.032;2023-04-24T12:55:02;4.78;;;2.67;;
40449;SDS011;41787;53.570;10.032;2023-04-24T12:57:29;6.90;;;3.80;;
40449;SDS011;41787;53.570;10.032;2023-04-24T12:59:56;4.60;;;3.28;;
40449;SDS011;41787;53.570;10.032;2023-04-24T13:02:23;6.18;;;3.47;;
40449;SDS011;41787;53.570;10.032;2023-04-24T13:04:49;6.25;;;3.78;;
40449;SDS011;41787;53.570;10.032;2023-04-24T13:07:15;5.07;;;3.97;;
40449;SDS011;41787;53.570;10.032;2023-04-24T13:09:42;10.02;;;3.65;;
40449;SDS011;41787;53.570;10.032;2023-04-24T13:12:08;7.18;;;4.50;;
40449;SDS011;41787;53.570;10.032;2023-04-24T13:14:35;6.15;;;4.05;;
40449;SDS011;41787;53.570;10.032;2023-04-24T13:17:01;6.88;;;4.32;;
40449;SDS011;41787;53.570;10.032;2023-04-24T13:19:27;6.65;;;4.30;;
40449;SDS011;41787;53.570;10.032;2023-04-24T13:21:54;6.53;;;4.40;;
40449;SDS011;41787;53.570;10.032;2023-04-24T13:24:21;6.25;;;4.35;;
40449;SDS011;41787;53.570;10.032;2023-04-24T13:26:51;8.13;;;4.55;;
40449;SDS011;41787;53.570;10.032;2023-04-24T13:29:17;6.18;;;3.67;;
40449;SDS011;41787;53.570;10.032;2023-04-24T13:31:43;7.43;;;4.90;;
40449;SDS011;41787;53.570;10.032;2023-04-24T13:34:09;7.32;;;3.80;;
40449;SDS011;41787;53.570;10.032;2023-04-24T13:36:35;6.13;;;3.70;;
40449;SDS011;41787;53.570;10.032;2023-04-24T13:39:02;6.40;;;4.22;;
40449;SDS011;41787;53.570;10.032;2023-04-24T13:41:29;4.32;;;3.67;;
40449;SDS011;41787;53.570;10.032;2023-04-24T13:43:55;4.78;;;3.75;;
40449;SDS011;41787;53.570;10.032;2023-04-24T13:46:21;5.35;;;3.33;;
40449;SDS011;41787;53.570;10.032;2023-04-24T13:48:47;5.82;;;3.38;;
40449;SDS011;41787;53.570;10.032;2023-04-24T13:51:13;8.63;;;3.35;;
40449;SDS011;41787;53.570;10.032;2023-04-24T13:53:39;3.92;;;2.67;;
40449;SDS011;41787;53.570;10.032;2023-04-24T13:56:05;3.67;;;3.00;;
40449;SDS011;41787;53.570;10.032;2023-04-24T13:58:31;4.32;;;3.15;;
40449;SDS011;41787;53.570;10.032;2023-04-24T14:00:57;4.15;;;3.05;;
40449;SDS011;41787;53.570;10.032;2023-04-24T14:03:23;6.63;;;2.85;;
40449;SDS011;41787;53.570;10.032;2023-04-24T14:05:49;7.80;;;2.88;;
40449;SDS011;41787;53.570;10.032;2023-04-24T14:08:15;4.80;;;2.85;;
40449;SDS011;41787;53.570;10.032;2023-04-24T14:10:42;9.02;;;3.28;;
40449;SDS011;41787;53.570;10.032;2023-04-24T14:13:08;3.58;;;3.05;;
40449;SDS011;41787;53.570;10.032;2023-04-24T14:15:35;4.07;;;2.80;;
40449;SDS011;41787;53.570;10.032;2023-04-24T14:18:01;4.10;;;3.17;;
40449;SDS011;41787;53.570;10.032;2023-04-24T14:20:28;3.97;;;2.90;;
40449;SDS011;41787;53.570;10.032;2023-04-24T14:22:54;6.20;;;3.03;;
40449;SDS011;41787;53.570;10.032;2023-04-24T14:25:20;4.20;;;2.70;;
40449;SDS011;41787;53.570;10.032;2023-04-24T14:27:47;5.03;;;3.10;;
40449;SDS011;41787;53.570;10.032;2023-04-24T14:30:13;4.40;;;2.83;;
40449;SDS011;41787;53.570;10.032;2023-04-24T14:32:49;3.33;;;2.13;;
40449;SDS011;41787;53.570;10.032;2023-04-24T14:35:15;2.67;;;2.40;;
40449;SDS011;41787;53.570;10.032;2023-04-24T14:37:41;6.05;;;2.70;;
40449;SDS011;41787;53.570;10.032;2023-04-24T14:40:07;4.15;;;3.15;;
40449;SDS011;41787;53.570;10.032;2023-04-24T14:42:34;5.35;;;3.60;;
40449;SDS011;41787;53.570;10.032;2023-04-24T14:45:00;5.07;;;2.50;;